This is the latest recevied weather packets stored in our database for station/object 9M2SES-13. If no packets are shown the sender has not sent any weather packets the latest 10 day(s).
| Time | Temp. | Humidity | Pressure | Rain* | Wind** | Luminosity | Snow |
|---|---|---|---|---|---|---|---|
| 1777521246 | 33.89° C | 17% | - | 0 mm | - | 0 W/m² | - |
| 1777520645 | 33.89° C | 10% | - | 0 mm | - | 0 W/m² | - |
| 1777520044 | 35° C | 10% | - | 0 mm | - | 0 W/m² | - |
| 1777518843 | 35° C | 11% | - | 0 mm | - | 0 W/m² | - |
| 1777518242 | 32.78° C | 48% | - | 0 mm | - | 0 W/m² | - |
| 1777517641 | 31.67° C | 92% | - | 0 mm | - | 0 W/m² | - |
| 1777517041 | 30.56° C | 95% | - | 0 mm | - | 0 W/m² | - |
| 1777515839 | 31.67° C | 95% | - | 0 mm | - | 0 W/m² | - |
| 1777515239 | 31.67° C | 95% | - | 0 mm | - | 0 W/m² | - |
| 1777514638 | 30.56° C | 95% | - | 0 mm | - | 0 W/m² | - |
| 1777513437 | 30.56° C | 95% | - | 0 mm | - | 0 W/m² | - |
| 1777512836 | 30° C | 95% | - | 0 mm | - | 0 W/m² | - |
| 1777512235 | 28.89° C | 95% | - | 0 mm | - | 0 W/m² | - |
| 1777511032 | 30° C | 95% | - | 0 mm | - | 0 W/m² | - |
| 1777510432 | 30° C | 95% | - | 0 mm | - | 0 W/m² | - |
| 1777509831 | 30° C | 95% | - | 0 mm | - | 0 W/m² | - |
| 1777508029 | 28.89° C | 95% | - | 0 mm | - | 0 W/m² | - |
| 1777507428 | 27.78° C | 95% | - | 0 mm | - | 0 W/m² | - |
| 1777504424 | 27.78° C | 95% | - | 0 mm | - | 0 W/m² | - |
| 1777503222 | 27.78° C | 95% | - | 0 mm | - | 0 W/m² | - |
| 1777502621 | 27.78° C | 95% | - | 0 mm | - | 0 W/m² | - |
| 1777502020 | 27.78° C | 95% | - | 0 mm | - | 0 W/m² | - |
| 1777501420 | 26.67° C | 95% | - | 0 mm | - | 0 W/m² | - |
| 1777499617 | 27.78° C | 95% | - | 0 mm | - | 0 W/m² | - |
| 1777498415 | 27.78° C | 89% | - | 0 mm | - | 0 W/m² | - |
* Rain latest hour (hover to see other rain measurements)
** Current wind speed in m/s (hover to see current wind gust speed)